Time;durP1;ratioP1;P1;durP2;ratioP2;P2;SDS_P1;SDS_P2;PMS_P1;PMS_P2;Temp;Humidity;BMP_temperature;BMP_pressure;BME280_temperature;BME280_humidity;BME280_pressure;Samples;Min_cycle;Max_cycle;Signal;HPM_P1;HPM_P2
2024/02/06 00:01:54;;;;;;;8.20;3.77;;;9.00;99.90;;;;;;5013176;28;20037;-53
2024/02/06 00:04:20;;;;;;;8.47;3.03;;;9.00;99.90;;;;;;5012900;28;20398;-53
2024/02/06 00:06:45;;;;;;;7.50;3.27;;;9.00;99.90;;;;;;5013261;28;20026;-53
2024/02/06 00:09:11;;;;;;;9.23;3.17;;;9.00;99.90;;;;;;5013033;28;20038;-54
2024/02/06 00:11:40;;;;;;;5.77;2.70;;;9.00;99.90;;;;;;5013093;28;20030;-51
2024/02/06 00:14:10;;;;;;;4.75;2.60;;;9.00;99.90;;;;;;5012718;28;20120;-51
2024/02/06 00:16:37;;;;;;;6.13;2.80;;;9.00;99.90;;;;;;5012953;28;20042;-54
2024/02/06 00:19:02;;;;;;;8.47;3.20;;;9.00;99.90;;;;;;5011698;28;20026;-51
2024/02/06 00:21:28;;;;;;;7.53;3.07;;;9.00;99.90;;;;;;5012727;28;20395;-54
2024/02/06 00:23:53;;;;;;;10.93;2.77;;;9.00;99.90;;;;;;5012750;28;20060;-53
2024/02/06 00:26:19;;;;;;;10.13;3.37;;;9.00;99.90;;;;;;5012714;28;20029;-49
2024/02/06 00:28:46;;;;;;;10.37;3.30;;;9.00;99.90;;;;;;5012537;28;20026;-49
2024/02/06 00:31:12;;;;;;;9.90;2.90;;;9.00;99.90;;;;;;5012503;28;20030;-51
2024/02/06 00:33:37;;;;;;;9.73;2.87;;;9.00;99.90;;;;;;5027579;28;20064;-51
2024/02/06 00:36:03;;;;;;;9.03;2.90;;;9.10;99.90;;;;;;5012586;28;20029;-51
2024/02/06 00:38:29;;;;;;;6.20;2.63;;;9.10;99.90;;;;;;5012182;28;20467;-53
2024/02/06 00:40:55;;;;;;;6.77;2.60;;;9.10;99.90;;;;;;5012407;28;20037;-52
2024/02/06 00:43:22;;;;;;;9.90;2.97;;;9.10;99.90;;;;;;5012294;28;20021;-54
2024/02/06 00:45:48;;;;;;;4.90;2.20;;;9.10;99.90;;;;;;5012436;28;20038;-51
2024/02/06 00:48:14;;;;;;;7.33;2.80;;;9.10;99.90;;;;;;5011229;28;20438;-51
2024/02/06 00:50:40;;;;;;;5.20;2.33;;;9.20;99.90;;;;;;5012298;28;20046;-51
2024/02/06 00:53:06;;;;;;;6.97;2.70;;;9.20;99.90;;;;;;5012353;28;20033;-52
2024/02/06 00:55:32;;;;;;;8.07;3.27;;;9.20;99.90;;;;;;5012252;28;20092;-54
2024/02/06 00:57:57;;;;;;;7.67;2.40;;;9.30;99.90;;;;;;5012095;28;20048;-51
2024/02/06 01:00:23;;;;;;;10.33;3.47;;;9.30;99.90;;;;;;5012351;28;20030;-52
2024/02/06 01:02:48;;;;;;;5.53;2.53;;;9.20;99.90;;;;;;5012420;28;20034;-54
2024/02/06 01:05:14;;;;;;;7.23;2.43;;;9.30;99.90;;;;;;5012522;28;20440;-53
2024/02/06 01:07:40;;;;;;;6.13;2.83;;;9.30;99.90;;;;;;5013034;28;20387;-53
2024/02/06 01:10:07;;;;;;;5.50;1.93;;;9.30;99.90;;;;;;5013326;28;20064;-54
2024/02/06 01:12:32;;;;;;;4.43;2.07;;;9.30;99.90;;;;;;5013644;28;20034;-55
2024/02/06 01:14:59;;;;;;;5.47;2.20;;;9.30;99.90;;;;;;5013296;28;20046;-53
2024/02/06 01:17:25;;;;;;;7.33;2.30;;;9.30;99.90;;;;;;5012965;28;20038;-54
2024/02/06 01:19:51;;;;;;;6.10;1.97;;;9.40;99.90;;;;;;5013529;28;20032;-53
2024/02/06 01:22:17;;;;;;;7.23;2.40;;;9.40;99.90;;;;;;5013161;28;20030;-50
2024/02/06 01:24:43;;;;;;;8.00;2.33;;;9.40;99.90;;;;;;5011861;28;20052;-53
2024/02/06 01:27:08;;;;;;;6.37;1.93;;;9.50;99.90;;;;;;5011804;28;20025;-51
2024/02/06 01:29:34;;;;;;;6.07;2.10;;;9.50;99.90;;;;;;5013410;28;20490;-54
2024/02/06 01:32:00;;;;;;;5.90;2.47;;;9.50;99.90;;;;;;5015747;28;20037;-54
2024/02/06 01:34:25;;;;;;;7.70;2.33;;;9.50;99.90;;;;;;5014608;28;20499;-52
2024/02/06 01:36:51;;;;;;;7.23;2.17;;;9.50;99.90;;;;;;5015615;28;20076;-52
2024/02/06 01:39:17;;;;;;;6.23;2.10;;;9.50;99.90;;;;;;5015593;28;20153;-55
2024/02/06 01:41:43;;;;;;;8.57;2.63;;;9.50;99.90;;;;;;5015710;28;20435;-52
2024/02/06 01:44:09;;;;;;;6.57;2.03;;;9.50;99.90;;;;;;5015580;28;20034;-53
2024/02/06 01:46:34;;;;;;;5.67;2.27;;;9.60;99.90;;;;;;5015528;28;20021;-52
2024/02/06 01:49:04;;;;;;;4.93;2.30;;;9.60;99.90;;;;;;5015374;28;20026;-50
2024/02/06 01:51:35;;;;;;;9.10;3.90;;;9.60;99.90;;;;;;5015641;28;20037;-50
2024/02/06 01:54:01;;;;;;;7.77;2.37;;;9.60;99.90;;;;;;5015398;28;20069;-53
2024/02/06 01:56:27;;;;;;;5.70;2.10;;;9.60;99.90;;;;;;5015339;28;20038;-50
2024/02/06 01:58:54;;;;;;;6.13;2.07;;;9.60;99.90;;;;;;5015073;28;20530;-50
2024/02/06 02:01:22;;;;;;;4.90;2.10;;;9.60;99.90;;;;;;5015306;28;20361;-50
2024/02/06 02:03:52;;;;;;;5.20;2.67;;;9.60;99.90;;;;;;5015338;28;20669;-51
2024/02/06 02:06:18;;;;;;;9.43;2.13;;;9.70;99.90;;;;;;5015212;28;20030;-54
2024/02/06 02:08:45;;;;;;;4.93;1.97;;;9.60;99.90;;;;;;5015070;28;20040;-54
2024/02/06 02:11:10;;;;;;;4.60;1.90;;;9.70;99.90;;;;;;5013827;28;20125;-53
2024/02/06 02:13:38;;;;;;;5.80;2.03;;;9.70;99.90;;;;;;5013970;28;20204;-54
2024/02/06 02:16:04;;;;;;;6.97;2.03;;;9.70;99.90;;;;;;5015089;28;20026;-50
2024/02/06 02:18:31;;;;;;;9.47;2.50;;;9.70;99.90;;;;;;5014756;28;20398;-55
2024/02/06 02:20:57;;;;;;;6.40;1.80;;;9.80;99.90;;;;;;5014906;28;20037;-52
2024/02/06 02:23:23;;;;;;;4.53;1.87;;;9.80;99.90;;;;;;5013685;28;20026;-51
2024/02/06 02:25:49;;;;;;;5.43;1.90;;;9.80;99.90;;;;;;5014965;28;20033;-52
2024/02/06 02:28:15;;;;;;;6.53;2.47;;;9.80;99.90;;;;;;5014590;28;20114;-50
2024/02/06 02:30:41;;;;;;;7.20;2.30;;;9.80;99.90;;;;;;5014816;28;20529;-52
2024/02/06 02:33:08;;;;;;;7.93;2.20;;;9.80;99.90;;;;;;5014649;28;20048;-53
2024/02/06 02:35:34;;;;;;;9.10;2.27;;;9.80;99.90;;;;;;5013484;28;20402;-52
2024/02/06 02:37:59;;;;;;;6.37;2.37;;;9.80;99.90;;;;;;5014424;28;20034;-50
2024/02/06 02:40:25;;;;;;;6.70;2.03;;;9.80;99.90;;;;;;5014085;28;20034;-54
2024/02/06 02:42:52;;;;;;;5.57;2.03;;;9.80;99.90;;;;;;5014248;28;20030;-51
2024/02/06 02:45:18;;;;;;;8.60;2.37;;;9.80;99.90;;;;;;5014586;28;20112;-52
2024/02/06 02:47:45;;;;;;;5.00;2.17;;;9.80;99.90;;;;;;5014320;28;20108;-51
2024/02/06 02:50:11;;;;;;;6.60;2.47;;;9.70;99.90;;;;;;5011563;28;20038;-54
2024/02/06 02:52:37;;;;;;;8.20;2.53;;;9.70;99.90;;;;;;5012422;28;20105;-52
2024/02/06 02:55:03;;;;;;;11.50;4.70;;;9.80;99.90;;;;;;5013602;28;20105;-52
2024/02/06 02:57:29;;;;;;;10.63;4.30;;;9.80;99.90;;;;;;5013696;28;20365;-50
2024/02/06 02:59:54;;;;;;;5.80;2.30;;;9.80;99.90;;;;;;5013090;28;20458;-55
2024/02/06 03:02:20;;;;;;;6.23;2.17;;;9.80;99.90;;;;;;5014151;28;20037;-50
2024/02/06 03:04:45;;;;;;;7.47;2.67;;;9.80;99.90;;;;;;5013880;28;20026;-53
2024/02/06 03:07:11;;;;;;;7.27;2.67;;;9.80;99.90;;;;;;5013974;28;20476;-51
2024/02/06 03:09:37;;;;;;;6.57;2.50;;;9.80;99.90;;;;;;5013840;28;20054;-52
2024/02/06 03:12:03;;;;;;;6.57;2.30;;;9.80;99.90;;;;;;5014006;28;20458;-50
2024/02/06 03:14:28;;;;;;;8.40;2.10;;;9.80;99.90;;;;;;5013887;28;20033;-50
2024/02/06 03:16:54;;;;;;;5.73;2.03;;;9.80;99.90;;;;;;5013869;28;20120;-51
2024/02/06 03:19:19;;;;;;;5.50;2.20;;;9.80;99.90;;;;;;5013757;28;20053;-49
2024/02/06 03:21:46;;;;;;;9.83;3.20;;;9.80;99.90;;;;;;5013910;28;20033;-50
2024/02/06 03:24:12;;;;;;;7.50;2.30;;;9.80;99.90;;;;;;5013692;28;20034;-49
2024/02/06 03:26:37;;;;;;;7.57;2.03;;;9.80;99.90;;;;;;5013746;28;20367;-50
2024/02/06 03:29:03;;;;;;;9.07;2.00;;;9.80;99.90;;;;;;5013466;28;20048;-53
2024/02/06 03:31:28;;;;;;;5.77;2.47;;;9.80;99.90;;;;;;5013694;28;20149;-51
2024/02/06 03:33:54;;;;;;;4.00;1.83;;;9.80;99.90;;;;;;5013542;28;20036;-53
2024/02/06 03:36:20;;;;;;;5.13;2.10;;;9.80;99.90;;;;;;5013552;28;20153;-50
2024/02/06 03:38:46;;;;;;;5.23;1.77;;;9.80;99.90;;;;;;5013277;28;20026;-52
2024/02/06 03:41:12;;;;;;;7.20;2.33;;;9.80;99.90;;;;;;5013376;28;20025;-51
2024/02/06 03:43:37;;;;;;;6.43;1.93;;;9.90;99.90;;;;;;5013337;28;20456;-50
2024/02/06 03:46:03;;;;;;;4.50;1.80;;;9.90;99.90;;;;;;5013399;28;20026;-52
2024/02/06 03:48:34;;;;;;;6.33;1.97;;;9.80;99.90;;;;;;5013252;28;20034;-50
2024/02/06 03:51:01;;;;;;;5.77;1.83;;;9.90;99.90;;;;;;5013278;28;20038;-55
2024/02/06 03:53:26;;;;;;;5.97;1.87;;;9.90;99.90;;;;;;5012233;28;20205;-53
2024/02/06 03:55:52;;;;;;;10.37;1.93;;;9.90;99.90;;;;;;5013240;28;20033;-53
2024/02/06 03:58:17;;;;;;;4.20;1.77;;;9.90;99.90;;;;;;5013018;28;20030;-51
2024/02/06 04:00:49;;;;;;;5.07;2.20;;;9.90;99.90;;;;;;5013070;28;20061;-51
2024/02/06 04:03:18;;;;;;;6.07;2.17;;;9.90;99.90;;;;;;5013173;28;20029;-52
2024/02/06 04:05:44;;;;;;;6.18;2.20;;;9.90;99.90;;;;;;5013056;28;20161;-52
2024/02/06 04:08:10;;;;;;;6.33;1.73;;;9.90;99.90;;;;;;5012693;28;20088;-54
2024/02/06 04:10:37;;;;;;;4.83;1.90;;;9.90;99.90;;;;;;5012885;28;20131;-54
2024/02/06 04:13:03;;;;;;;9.10;2.30;;;9.90;99.90;;;;;;4995246;28;20030;-51
2024/02/06 04:15:35;;;;;;;5.50;1.87;;;9.90;99.90;;;;;;5069231;28;20608;-50
2024/02/06 04:18:04;;;;;;;5.37;2.23;;;9.90;99.90;;;;;;5068979;28;20081;-50
2024/02/06 04:20:31;;;;;;;6.03;2.03;;;9.90;99.90;;;;;;5068968;28;20540;-52
2024/02/06 04:22:58;;;;;;;5.17;1.87;;;9.90;99.90;;;;;;5068803;28;20068;-52
2024/02/06 04:25:24;;;;;;;5.50;1.57;;;9.90;99.90;;;;;;5069070;28;20029;-51
2024/02/06 04:27:49;;;;;;;4.97;1.80;;;9.90;99.90;;;;;;5068763;28;20027;-50
2024/02/06 04:30:16;;;;;;;6.77;1.87;;;9.90;99.90;;;;;;5068813;28;20025;-51
2024/02/06 04:32:42;;;;;;;5.67;2.07;;;9.90;99.90;;;;;;5068772;28;20037;-50
2024/02/06 04:35:08;;;;;;;6.87;2.13;;;9.90;99.90;;;;;;5068549;28;20114;-50
2024/02/06 04:37:33;;;;;;;5.07;1.97;;;9.90;99.90;;;;;;5068500;28;20032;-52
2024/02/06 04:39:59;;;;;;;5.87;1.97;;;9.90;99.90;;;;;;5068613;28;20029;-52
2024/02/06 04:42:25;;;;;;;6.37;1.93;;;9.80;99.90;;;;;;5068639;28;20033;-53
2024/02/06 04:44:50;;;;;;;8.13;2.53;;;9.80;99.90;;;;;;5067346;28;20025;-51
2024/02/06 04:47:16;;;;;;;8.70;3.17;;;9.90;99.90;;;;;;5068477;28;20035;-53
2024/02/06 04:49:42;;;;;;;6.80;2.27;;;9.90;99.90;;;;;;5068819;28;20032;-54
2024/02/06 04:52:07;;;;;;;17.53;6.93;;;9.90;99.90;;;;;;5068434;28;20501;-51
2024/02/06 04:54:33;;;;;;;24.90;9.57;;;9.90;99.90;;;;;;5068228;28;20170;-51
2024/02/06 04:56:58;;;;;;;7.57;3.73;;;9.90;99.90;;;;;;5068340;28;20100;-51
2024/02/06 04:59:24;;;;;;;7.73;3.13;;;9.90;99.90;;;;;;5068115;28;20025;-51
2024/02/06 05:01:50;;;;;;;8.37;3.77;;;10.00;99.90;;;;;;5067985;28;20078;-53
2024/02/06 05:04:15;;;;;;;10.40;4.47;;;9.90;99.90;;;;;;5061417;28;20033;-54
2024/02/06 05:06:41;;;;;;;10.40;4.90;;;9.90;99.90;;;;;;5064016;28;20033;-51
2024/02/06 05:09:07;;;;;;;13.73;4.83;;;9.90;99.90;;;;;;5051406;28;20026;-53
2024/02/06 05:11:32;;;;;;;12.37;4.30;;;9.90;99.90;;;;;;5058040;28;20075;-54
2024/02/06 05:13:58;;;;;;;7.10;3.93;;;9.90;99.90;;;;;;5047832;28;20087;-52
2024/02/06 05:16:24;;;;;;;9.13;3.70;;;9.90;99.90;;;;;;5048314;28;20029;-53
2024/02/06 05:18:49;;;;;;;6.57;3.13;;;10.00;99.90;;;;;;5048106;28;20040;-49
2024/02/06 05:21:15;;;;;;;6.67;3.20;;;10.00;99.90;;;;;;5048236;28;20037;-50
2024/02/06 05:23:41;;;;;;;11.67;2.40;;;10.00;99.90;;;;;;5048166;28;20056;-54
2024/02/06 05:26:07;;;;;;;7.13;2.87;;;9.90;99.90;;;;;;5039741;28;20041;-51
2024/02/06 05:28:32;;;;;;;8.67;2.20;;;9.90;99.90;;;;;;5034717;28;20135;-49
2024/02/06 05:30:58;;;;;;;8.20;1.93;;;9.90;99.90;;;;;;5034801;28;20076;-54
2024/02/06 05:33:23;;;;;;;6.13;1.97;;;9.80;99.90;;;;;;5034607;28;20037;-50
2024/02/06 05:35:49;;;;;;;7.37;2.57;;;9.80;99.90;;;;;;5034775;28;20032;-52
2024/02/06 05:38:15;;;;;;;4.13;2.27;;;9.80;99.90;;;;;;5034717;28;20120;-51
2024/02/06 05:40:40;;;;;;;4.83;2.30;;;9.80;99.90;;;;;;5034805;28;20025;-57
2024/02/06 05:43:06;;;;;;;5.50;1.90;;;9.90;99.90;;;;;;5034611;28;20030;-52
2024/02/06 05:45:32;;;;;;;5.97;2.00;;;9.90;99.90;;;;;;5034656;28;20033;-53
2024/02/06 05:47:59;;;;;;;9.23;2.43;;;10.00;99.90;;;;;;5034393;28;20480;-55
2024/02/06 05:50:25;;;;;;;9.43;2.30;;;9.90;99.90;;;;;;5034456;28;20109;-53
2024/02/06 05:52:51;;;;;;;5.67;2.63;;;10.00;99.90;;;;;;5034533;28;20457;-52
2024/02/06 05:55:16;;;;;;;7.20;2.13;;;10.10;99.90;;;;;;5033062;28;20040;-55
2024/02/06 05:57:42;;;;;;;7.07;2.17;;;10.20;99.90;;;;;;5034181;28;20025;-55
2024/02/06 06:00:08;;;;;;;8.33;2.90;;;10.20;99.90;;;;;;5034299;28;20033;-53
2024/02/06 06:02:34;;;;;;;5.13;2.40;;;10.20;99.90;;;;;;5032821;28;20033;-51
2024/02/06 06:04:59;;;;;;;9.40;2.90;;;10.20;99.90;;;;;;5034060;28;20044;-54
2024/02/06 06:07:25;;;;;;;5.83;2.37;;;10.10;99.90;;;;;;5032731;28;20095;-51
2024/02/06 06:09:51;;;;;;;4.30;2.37;;;10.20;99.90;;;;;;5034086;28;20032;-55
2024/02/06 06:12:16;;;;;;;6.93;2.90;;;10.20;99.90;;;;;;5034215;28;20456;-52
2024/02/06 06:14:42;;;;;;;7.43;2.43;;;10.20;99.90;;;;;;5033826;28;20033;-52
2024/02/06 06:17:08;;;;;;;10.37;3.57;;;10.20;99.90;;;;;;5033810;28;20446;-52
2024/02/06 06:19:33;;;;;;;8.10;2.93;;;10.10;99.90;;;;;;5033362;28;20028;-49
2024/02/06 06:22:03;;;;;;;10.37;3.40;;;10.00;99.90;;;;;;5033584;28;20057;-53
2024/02/06 06:24:28;;;;;;;;;;;10.00;99.90;;;;;;5034224;28;20033;-52
2024/02/06 06:26:54;;;;;;;6.70;3.13;;;10.00;99.90;;;;;;5033408;28;20389;-53
2024/02/06 06:29:19;;;;;;;5.20;2.27;;;9.90;99.90;;;;;;5032470;28;20033;-51
2024/02/06 06:31:45;;;;;;;7.27;2.67;;;9.90;99.90;;;;;;5033430;28;20029;-53
2024/02/06 06:34:10;;;;;;;8.90;2.77;;;9.90;99.90;;;;;;5033194;28;20033;-53
2024/02/06 06:36:36;;;;;;;3.20;1.80;;;9.90;99.90;;;;;;5032952;28;20025;-51
2024/02/06 06:39:02;;;;;;;10.13;3.13;;;9.90;99.90;;;;;;5032497;28;20103;-53
2024/02/06 06:41:27;;;;;;;8.03;2.93;;;9.90;99.90;;;;;;5032026;28;20039;-50
2024/02/06 06:43:53;;;;;;;10.07;3.00;;;9.90;99.90;;;;;;5033173;28;20028;-51
2024/02/06 06:46:19;;;;;;;12.27;3.27;;;9.90;99.90;;;;;;5033273;28;20484;-50
2024/02/06 06:48:44;;;;;;;10.27;3.43;;;9.90;99.90;;;;;;5032897;28;20033;-50
2024/02/06 06:51:10;;;;;;;7.30;3.03;;;9.90;99.90;;;;;;5032997;28;20168;-50
2024/02/06 06:53:36;;;;;;;7.00;2.80;;;10.00;99.90;;;;;;5033147;28;20505;-50
2024/02/06 06:56:03;;;;;;;9.53;3.20;;;10.00;99.90;;;;;;5033461;28;20029;-53
2024/02/06 06:58:29;;;;;;;8.10;3.30;;;10.00;99.90;;;;;;5032992;28;20025;-50
2024/02/06 07:00:55;;;;;;;8.50;3.00;;;10.00;99.90;;;;;;5031835;28;20478;-52
2024/02/06 07:03:21;;;;;;;10.93;3.50;;;10.00;99.90;;;;;;5033987;28;20029;-51
2024/02/06 07:05:51;;;;;;;9.53;2.97;;;10.00;99.90;;;;;;5033657;28;20033;-54
2024/02/06 07:08:17;;;;;;;9.13;3.77;;;10.00;99.90;;;;;;5034432;28;20017;-50
2024/02/06 07:10:42;;;;;;;7.30;3.23;;;10.00;99.90;;;;;;5033015;28;20082;-55
2024/02/06 07:13:08;;;;;;;8.67;3.53;;;10.00;99.90;;;;;;5034366;28;20080;-54
2024/02/06 07:15:34;;;;;;;10.10;3.33;;;10.00;99.90;;;;;;5034446;28;20506;-53
2024/02/06 07:17:59;;;;;;;7.37;3.23;;;10.00;99.90;;;;;;5034336;28;20029;-51
2024/02/06 07:20:25;;;;;;;5.50;2.87;;;10.00;99.90;;;;;;5033338;28;20033;-54
2024/02/06 07:22:52;;;;;;;11.83;3.50;;;10.10;99.90;;;;;;5032330;28;20029;-53
2024/02/06 07:25:18;;;;;;;13.50;3.20;;;10.00;99.90;;;;;;5032467;28;20502;-51
2024/02/06 07:27:43;;;;;;;10.90;3.93;;;10.00;99.90;;;;;;5032202;28;20033;-53
2024/02/06 07:30:09;;;;;;;10.70;3.50;;;10.00;99.90;;;;;;5032186;28;20490;-55
2024/02/06 07:32:35;;;;;;;12.87;4.07;;;10.00;99.90;;;;;;5032216;28;20026;-53
2024/02/06 07:35:01;;;;;;;10.87;3.77;;;10.00;99.90;;;;;;5032309;28;20476;-55
2024/02/06 07:37:26;;;;;;;6.77;3.10;;;10.10;99.90;;;;;;5032065;28;20021;-54
2024/02/06 07:39:52;;;;;;;5.83;3.07;;;10.10;99.90;;;;;;5030812;28;20029;-55
2024/02/06 07:42:19;;;;;;;10.97;3.57;;;10.10;99.90;;;;;;5032145;28;20044;-55
2024/02/06 07:44:44;;;;;;;10.30;3.53;;;10.10;99.90;;;;;;5031984;28;20037;-55
2024/02/06 07:47:10;;;;;;;9.97;3.37;;;10.20;99.90;;;;;;5031911;28;20037;-51
2024/02/06 07:49:36;;;;;;;14.40;3.47;;;10.20;99.90;;;;;;5031668;28;20104;-54
2024/02/06 07:52:04;;;;;;;16.30;3.70;;;10.20;99.90;;;;;;5032008;28;20395;-52
2024/02/06 07:54:30;;;;;;;10.73;4.13;;;10.20;99.90;;;;;;5031926;28;20045;-55
2024/02/06 07:56:56;;;;;;;8.90;3.37;;;10.30;99.90;;;;;;5031859;28;20078;-55
2024/02/06 07:59:21;;;;;;;12.00;4.03;;;10.20;99.90;;;;;;5031666;28;20033;-54
2024/02/06 08:01:47;;;;;;;15.97;3.30;;;10.30;99.90;;;;;;5031887;28;20025;-54
2024/02/06 08:04:13;;;;;;;7.17;3.67;;;10.30;99.90;;;;;;5031805;28;20060;-55
2024/02/06 08:06:39;;;;;;;8.00;2.80;;;10.30;99.90;;;;;;5031882;28;20508;-52
2024/02/06 08:09:05;;;;;;;18.07;4.20;;;10.40;99.90;;;;;;5031596;28;20041;-52
2024/02/06 08:11:31;;;;;;;9.93;3.73;;;10.40;99.90;;;;;;5031808;28;20038;-54
2024/02/06 08:13:59;;;;;;;11.17;3.50;;;10.40;99.90;;;;;;5031505;28;20033;-53
2024/02/06 08:16:25;;;;;;;7.77;3.30;;;10.40;99.90;;;;;;5031807;28;20041;-52
2024/02/06 08:18:50;;;;;;;10.60;3.93;;;10.40;99.90;;;;;;5031476;28;20026;-53
2024/02/06 08:21:16;;;;;;;11.37;3.87;;;10.50;99.90;;;;;;5031709;28;20399;-54
2024/02/06 08:23:42;;;;;;;7.50;3.37;;;10.50;99.90;;;;;;5031659;28;20449;-50
2024/02/06 08:26:08;;;;;;;9.77;3.10;;;10.40;99.90;;;;;;5031745;28;20112;-53
2024/02/06 08:28:34;;;;;;;8.10;2.70;;;10.50;99.90;;;;;;5031482;28;20113;-53
2024/02/06 08:30:59;;;;;;;10.37;3.20;;;10.50;99.90;;;;;;5031451;28;20087;-55
2024/02/06 08:33:25;;;;;;;8.53;2.90;;;10.50;99.90;;;;;;5031684;28;20037;-53
2024/02/06 08:35:52;;;;;;;8.63;2.97;;;10.60;99.90;;;;;;5031509;28;20033;-55
2024/02/06 08:38:19;;;;;;;8.67;2.47;;;10.60;99.90;;;;;;5031369;28;20441;-54
2024/02/06 08:40:45;;;;;;;9.70;3.37;;;10.60;99.90;;;;;;5031553;28;20095;-54
2024/02/06 08:43:11;;;;;;;10.87;3.53;;;10.60;99.90;;;;;;5031363;28;20079;-52
2024/02/06 08:45:36;;;;;;;8.50;2.90;;;10.60;99.90;;;;;;5031456;28;20029;-51
2024/02/06 08:48:03;;;;;;;6.83;2.77;;;10.60;99.90;;;;;;5031182;28;20064;-54
2024/02/06 08:50:33;;;;;;;7.87;2.90;;;10.70;99.90;;;;;;5031301;28;20038;-54
2024/02/06 08:52:59;;;;;;;11.63;3.50;;;10.70;99.90;;;;;;5031282;28;20125;-53
2024/02/06 08:55:24;;;;;;;8.40;2.57;;;10.70;99.90;;;;;;5031283;28;20040;-52
2024/02/06 08:57:50;;;;;;;10.67;2.67;;;10.70;99.90;;;;;;5031110;28;20034;-53
2024/02/06 09:00:16;;;;;;;13.63;4.00;;;10.70;99.90;;;;;;5031599;28;20037;-54
2024/02/06 09:02:42;;;;;;;9.93;3.20;;;10.70;99.90;;;;;;5035245;28;20078;-54
2024/02/06 09:05:08;;;;;;;7.73;3.03;;;10.80;99.90;;;;;;5034984;28;20112;-54
2024/02/06 09:07:34;;;;;;;8.17;3.00;;;10.80;99.90;;;;;;5034924;28;20537;-54
2024/02/06 09:09:59;;;;;;;10.43;3.73;;;10.80;99.90;;;;;;5034787;28;20437;-51
2024/02/06 09:12:26;;;;;;;8.40;3.30;;;10.80;99.90;;;;;;5034822;28;20029;-54
2024/02/06 09:14:52;;;;;;;9.30;3.67;;;10.80;99.90;;;;;;5034602;28;20465;-55
2024/02/06 09:17:19;;;;;;;9.03;4.10;;;10.80;99.90;;;;;;5034673;28;20108;-52
2024/02/06 09:19:45;;;;;;;7.37;3.00;;;10.80;99.90;;;;;;5034651;28;20041;-53
2024/02/06 09:22:10;;;;;;;10.03;3.33;;;10.80;99.90;;;;;;5034765;28;20029;-52
2024/02/06 09:24:36;;;;;;;8.83;3.33;;;10.80;99.90;;;;;;5034489;28;20127;-53
2024/02/06 09:27:02;;;;;;;10.40;3.27;;;10.80;99.90;;;;;;5034399;28;20112;-53
2024/02/06 09:29:27;;;;;;;11.00;3.40;;;10.80;99.90;;;;;;5034390;28;20025;-54
2024/02/06 09:31:53;;;;;;;8.33;3.33;;;10.80;99.90;;;;;;5034415;28;20029;-52
2024/02/06 09:34:20;;;;;;;7.30;3.23;;;10.70;99.90;;;;;;5034307;28;20041;-51
2024/02/06 09:36:46;;;;;;;8.67;3.57;;;10.60;99.90;;;;;;5034556;28;20034;-51
2024/02/06 09:39:12;;;;;;;9.40;3.43;;;10.60;99.90;;;;;;5034100;28;20025;-53
2024/02/06 09:41:40;;;;;;;7.97;3.60;;;10.50;99.90;;;;;;5034313;28;20036;-53
2024/02/06 09:44:06;;;;;;;12.93;3.27;;;10.40;99.90;;;;;;5034173;28;20456;-55
2024/02/06 09:46:32;;;;;;;9.27;3.60;;;10.30;99.90;;;;;;5034228;28;20029;-55
2024/02/06 09:48:57;;;;;;;7.70;3.60;;;10.30;99.90;;;;;;5033999;28;20033;-52
2024/02/06 09:51:24;;;;;;;9.80;3.67;;;10.20;99.90;;;;;;5034180;28;20029;-55
2024/02/06 09:53:55;;;;;;;12.73;3.70;;;10.30;99.90;;;;;;5034080;28;20033;-52
2024/02/06 09:56:22;;;;;;;9.43;3.97;;;10.30;99.90;;;;;;5034226;28;20030;-54
2024/02/06 09:58:48;;;;;;;13.53;4.77;;;10.30;99.90;;;;;;5034169;28;20132;-55
2024/02/06 10:01:16;;;;;;;8.93;3.77;;;10.30;99.90;;;;;;5033805;28;20056;-52
2024/02/06 10:03:45;;;;;;;13.70;4.47;;;10.40;99.90;;;;;;5033999;28;20037;-55
2024/02/06 10:06:13;;;;;;;18.37;5.23;;;10.50;99.90;;;;;;5033972;28;20037;-53
2024/02/06 10:08:39;;;;;;;15.10;5.22;;;10.50;99.90;;;;;;5033848;28;20099;-53
2024/02/06 10:11:06;;;;;;;15.37;4.70;;;10.60;99.90;;;;;;5033680;28;20033;-54
2024/02/06 10:13:32;;;;;;;8.53;3.43;;;10.60;99.90;;;;;;5033507;28;20116;-53
2024/02/06 10:15:57;;;;;;;10.33;4.30;;;10.60;99.90;;;;;;5032463;28;20426;-54
2024/02/06 10:18:23;;;;;;;10.60;3.33;;;10.70;99.90;;;;;;5033540;28;20029;-54
2024/02/06 10:20:49;;;;;;;6.40;2.73;;;10.60;99.90;;;;;;5032301;28;20039;-55
2024/02/06 10:23:16;;;;;;;8.50;3.00;;;10.60;99.90;;;;;;5033511;28;20029;-53
2024/02/06 10:25:46;;;;;;;10.07;3.37;;;10.60;99.90;;;;;;5033657;28;20037;-52
2024/02/06 10:28:23;;;;;;;7.00;3.40;;;10.60;99.90;;;;;;5033312;28;20033;-54
2024/02/06 10:30:49;;;;;;;8.43;3.23;;;10.60;99.90;;;;;;5033345;28;20466;-51
2024/02/06 10:33:15;;;;;;;9.17;3.27;;;10.60;99.90;;;;;;5033392;28;20087;-54
2024/02/06 10:35:41;;;;;;;10.97;3.17;;;10.70;99.90;;;;;;5033166;28;20121;-51
2024/02/06 10:38:14;;;;;;;10.23;3.13;;;10.70;99.90;;;;;;5033108;28;20025;-55
2024/02/06 10:40:41;;;;;;;8.80;3.20;;;10.70;99.90;;;;;;5033204;28;20038;-51
2024/02/06 10:43:08;;;;;;;10.17;3.47;;;10.70;99.90;;;;;;5033243;28;20390;-53
2024/02/06 10:45:34;;;;;;;7.53;3.10;;;10.70;99.90;;;;;;5031856;28;20044;-53
2024/02/06 10:48:02;;;;;;;9.07;3.17;;;10.70;99.90;;;;;;5032905;28;20040;-55
2024/02/06 10:50:28;;;;;;;8.57;3.10;;;10.80;99.90;;;;;;5033034;28;20033;-54
2024/02/06 10:52:54;;;;;;;11.97;3.57;;;10.80;99.90;;;;;;5032991;28;20523;-51
2024/02/06 10:55:23;;;;;;;14.20;3.70;;;10.80;99.90;;;;;;5032918;28;20479;-49
2024/02/06 10:57:58;;;;;;;9.93;3.85;;;10.80;99.90;;;;;;5032789;28;20022;-53
2024/02/06 11:00:26;;;;;;;10.27;3.77;;;10.80;99.90;;;;;;5032816;28;20389;-54
2024/02/06 11:02:56;;;;;;;9.90;3.27;;;10.90;99.90;;;;;;5031484;28;20092;-51
2024/02/06 11:05:48;;;;;;;14.30;3.27;;;10.90;99.90;;;;;;5033034;28;20039;-54
2024/02/06 11:08:17;;;;;;;8.23;3.20;;;10.90;99.90;;;;;;5032534;28;20049;-54
2024/02/06 11:10:45;;;;;;;10.88;3.97;;;10.90;99.90;;;;;;5032702;28;20432;-54
2024/02/06 11:13:50;;;;;;;9.43;3.40;;;11.00;99.90;;;;;;5032256;28;20064;-54
2024/02/06 11:16:19;;;;;;;6.63;2.77;;;11.10;99.90;;;;;;5032642;28;20037;-53
2024/02/06 11:19:19;;;;;;;9.23;3.00;;;11.20;99.90;;;;;;5032377;28;20033;-49
2024/02/06 11:21:51;;;;;;;7.17;3.40;;;11.20;99.90;;;;;;5032582;28;20030;-50
2024/02/06 11:24:19;;;;;;;8.50;3.60;;;11.20;99.90;;;;;;5031898;28;20531;-53
2024/02/06 11:26:45;;;;;;;6.53;3.47;;;11.30;99.90;;;;;;5032497;28;20033;-52
2024/02/06 11:29:11;;;;;;;7.57;3.13;;;11.20;99.90;;;;;;5032119;28;20029;-54
2024/02/06 11:31:37;;;;;;;8.43;2.63;;;11.00;99.90;;;;;;5032271;28;20032;-51
2024/02/06 11:34:18;;;;;;;7.90;3.13;;;10.90;99.90;;;;;;5032056;28;20037;-53
2024/02/06 11:36:44;;;;;;;8.53;3.20;;;10.70;99.90;;;;;;5032368;28;20226;-53
2024/02/06 11:39:15;;;;;;;7.77;3.13;;;10.60;99.90;;;;;;5031912;28;20087;-52
2024/02/06 11:41:41;;;;;;;8.50;3.27;;;10.50;99.90;;;;;;5032146;28;20113;-50
2024/02/06 11:44:17;;;;;;;6.57;3.27;;;10.50;99.90;;;;;;5030512;28;20030;-50
2024/02/06 11:46:46;;;;;;;9.37;3.73;;;10.60;99.90;;;;;;5031990;28;20037;-49
2024/02/06 11:49:13;;;;;;;7.87;3.80;;;10.60;99.90;;;;;;5031684;28;20117;-52
2024/02/06 11:51:39;;;;;;;11.13;3.10;;;10.70;99.90;;;;;;5032000;28;20375;-50
2024/02/06 11:54:11;;;;;;;12.03;4.50;;;10.80;99.90;;;;;;5031808;28;20036;-53
2024/02/06 11:56:38;;;;;;;10.73;3.77;;;10.90;99.90;;;;;;5032421;28;20508;-51
2024/02/06 11:59:03;;;;;;;7.90;3.00;;;10.90;99.90;;;;;;5031601;28;20034;-54
2024/02/06 12:01:30;;;;;;;10.17;3.40;;;10.90;99.90;;;;;;5031932;28;20335;-53
2024/02/06 12:03:57;;;;;;;6.73;3.23;;;10.90;99.90;;;;;;5032113;28;20037;-51
2024/02/06 12:06:22;;;;;;;10.87;3.13;;;10.90;99.90;;;;;;5031816;28;20034;-55
2024/02/06 12:08:58;;;;;;;8.87;3.20;;;10.90;99.90;;;;;;5032038;28;20402;-51
2024/02/06 12:11:24;;;;;;;10.03;3.97;;;10.80;99.90;;;;;;5031757;28;20033;-54
2024/02/06 12:13:52;;;;;;;8.00;3.37;;;10.80;99.90;;;;;;5031478;28;20490;-55
2024/02/06 12:16:18;;;;;;;11.87;3.53;;;10.90;99.90;;;;;;5031703;28;20544;-54
2024/02/06 12:18:50;;;;;;;8.27;2.97;;;10.90;99.90;;;;;;5031522;28;20168;-54
2024/02/06 12:21:22;;;;;;;8.03;3.30;;;11.00;99.90;;;;;;5031722;28;20037;-54
2024/02/06 12:23:48;;;;;;;8.47;3.03;;;11.00;99.90;;;;;;5031498;28;20036;-51
2024/02/06 12:26:23;;;;;;;10.40;2.93;;;11.00;99.90;;;;;;5030325;28;20029;-51
2024/02/06 12:29:02;;;;;;;6.40;2.80;;;11.10;99.90;;;;;;5031405;28;20033;-52
2024/02/06 12:31:28;;;;;;;;;;;11.20;99.90;;;;;;5032178;28;20514;-53
2024/02/06 12:33:54;;;;;;;8.43;2.17;;;11.20;99.90;;;;;;5031369;28;20292;-52
2024/02/06 12:36:20;;;;;;;9.07;2.97;;;11.30;99.90;;;;;;5033607;28;20021;-53
2024/02/06 12:38:51;;;;;;;5.90;2.70;;;11.20;99.90;;;;;;5035391;28;20108;-53
2024/02/06 12:41:17;;;;;;;6.57;2.93;;;11.30;99.90;;;;;;5035419;28;20397;-54
2024/02/06 12:43:43;;;;;;;5.87;3.10;;;11.40;99.90;;;;;;5035338;28;20030;-53
2024/02/06 12:46:08;;;;;;;15.00;2.90;;;11.40;99.90;;;;;;5035478;28;20478;-52
2024/02/06 12:48:34;;;;;;;4.87;2.23;;;11.40;99.90;;;;;;5035258;28;20035;-50